< < Back
Terminal Aerodrome Forecast


Current Version              Previous Versions:   1  2  3  4  5  6  7  8  9  

Terminal Aerodrome Forecast

515
FTUS42 KTAE 242300
TAFDHN
TAF
KDHN 242320Z 2500/2524 21010KT P6SM SKC
     FM250100 22008KT P6SM SKC
     FM250800 23008KT P6SM BKN010
      TEMPO 2509/2513 5SM BR BKN007
     FM251400 26010KT P6SM BKN025
     FM251500 27010G15KT P6SM SCT040=

Latest METAR

464
SAUS70 KWBC 242300 RRH
MTRDHN
METAR KDHN 242253Z 21011KT 10SM CLR 27/16 A2994 RMK AO2 SLP132
T02670156


USA.gov is the U.S. government's official web portal to all federal, state and local government web resources and services.